createdAt,value
2022-12-04T00:01:19.680Z,1.00
2022-12-04T00:03:22.262Z,1.00
2022-12-04T00:05:25.009Z,1.00
2022-12-04T00:07:27.551Z,1.00
2022-12-04T00:09:30.351Z,1.00
2022-12-04T00:11:33.417Z,1.00
2022-12-04T00:13:36.403Z,0.90
2022-12-04T00:15:41.893Z,1.00
2022-12-04T00:17:47.256Z,1.00
2022-12-04T00:19:49.799Z,1.00
2022-12-04T00:21:52.284Z,1.00
2022-12-04T00:23:54.887Z,0.90
2022-12-04T00:26:00.145Z,1.00
2022-12-04T00:28:02.605Z,0.90
2022-12-04T00:30:07.422Z,0.90
2022-12-04T00:32:10.195Z,1.00
2022-12-04T00:34:12.687Z,1.00
2022-12-04T00:36:16.274Z,1.00
2022-12-04T00:38:18.805Z,1.00
2022-12-04T00:40:21.288Z,1.00
2022-12-04T00:42:23.793Z,1.00
2022-12-04T00:44:26.680Z,1.00
2022-12-04T00:46:29.580Z,1.00
2022-12-04T00:48:32.040Z,1.00
2022-12-04T00:50:34.521Z,1.00
2022-12-04T00:52:37.132Z,1.00
2022-12-04T00:54:39.972Z,1.00
2022-12-04T00:56:43.109Z,1.00
2022-12-04T00:58:45.749Z,1.00
2022-12-04T01:03:07.042Z,1.10
2022-12-04T01:05:10.416Z,1.10
2022-12-04T01:07:13.617Z,1.10
2022-12-04T01:09:16.191Z,1.00
2022-12-04T01:11:19.376Z,1.10
2022-12-04T01:13:22.555Z,1.00
2022-12-04T01:15:25.140Z,1.10
2022-12-04T01:17:28.205Z,1.00
2022-12-04T01:19:30.911Z,1.00
2022-12-04T01:21:33.880Z,1.00
2022-12-04T01:23:36.349Z,1.00
2022-12-04T01:25:39.139Z,1.10
2022-12-04T01:27:41.680Z,1.00
2022-12-04T01:29:44.136Z,1.00
2022-12-04T01:31:46.902Z,1.10
2022-12-04T01:33:49.868Z,1.10
2022-12-04T01:35:53.144Z,1.10
2022-12-04T01:37:55.645Z,1.10
2022-12-04T01:39:58.252Z,1.10
2022-12-04T01:42:00.728Z,1.10
2022-12-04T01:44:10.787Z,1.10
2022-12-04T01:46:13.512Z,1.10
2022-12-04T01:48:18.661Z,1.10
2022-12-04T01:50:21.317Z,1.10
2022-12-04T01:52:25.617Z,1.10
2022-12-04T01:54:29.909Z,1.10
2022-12-04T01:56:33.518Z,1.20
2022-12-04T01:58:37.783Z,1.20
2022-12-04T02:00:40.437Z,1.10
2022-12-04T02:02:44.768Z,1.20
2022-12-04T02:04:47.812Z,1.10
2022-12-04T02:06:50.531Z,1.20
2022-12-04T02:08:53.017Z,1.10
2022-12-04T02:10:58.037Z,1.10
2022-12-04T02:13:02.657Z,1.20
2022-12-04T02:15:07.309Z,1.10
2022-12-04T02:17:12.488Z,1.20
2022-12-04T02:19:21.173Z,1.10
2022-12-04T02:21:26.210Z,1.10
2022-12-04T02:23:36.858Z,1.10
2022-12-04T02:25:41.150Z,1.10
2022-12-04T02:27:49.653Z,1.10
2022-12-04T02:29:54.570Z,1.10
2022-12-04T02:31:59.287Z,1.10
2022-12-04T02:34:03.557Z,1.20
2022-12-04T02:36:07.796Z,1.20
2022-12-04T02:38:13.908Z,1.20
2022-12-04T02:40:19.559Z,1.10
2022-12-04T02:42:24.224Z,1.20
2022-12-04T02:44:28.039Z,1.10
2022-12-04T02:46:32.658Z,1.20
2022-12-04T02:48:37.004Z,1.20
2022-12-04T02:50:40.408Z,1.20
2022-12-04T02:52:44.859Z,1.20
2022-12-04T02:54:49.120Z,1.20
2022-12-04T02:56:52.907Z,1.20
2022-12-04T02:58:56.965Z,1.20
2022-12-04T03:01:01.149Z,1.20
2022-12-04T03:03:05.501Z,1.10
2022-12-04T03:05:10.776Z,1.10
2022-12-04T03:07:14.148Z,1.10
2022-12-04T03:09:18.462Z,1.10
2022-12-04T03:11:21.147Z,1.10
2022-12-04T03:13:25.303Z,1.10
2022-12-04T03:15:29.418Z,1.10
2022-12-04T03:17:33.866Z,1.00
2022-12-04T03:19:38.910Z,1.00
2022-12-04T03:21:43.226Z,1.00
2022-12-04T03:23:47.593Z,1.10
2022-12-04T03:25:52.041Z,1.10
2022-12-04T03:27:56.431Z,1.00
2022-12-04T03:30:01.291Z,1.00
2022-12-04T03:32:06.874Z,1.00
2022-12-04T03:34:09.928Z,1.00
2022-12-04T03:36:15.229Z,1.00
2022-12-04T03:38:19.617Z,1.00
2022-12-04T03:40:23.677Z,1.00
2022-12-04T03:42:28.018Z,1.00
2022-12-04T03:44:33.064Z,1.00
2022-12-04T03:46:37.749Z,1.00
2022-12-04T03:48:42.432Z,1.00
2022-12-04T03:50:47.836Z,1.00
2022-12-04T03:52:52.746Z,1.00
2022-12-04T03:54:57.074Z,1.00
2022-12-04T03:57:00.677Z,1.00
2022-12-04T03:59:05.595Z,1.00
2022-12-04T04:01:09.742Z,1.00
2022-12-04T04:03:14.429Z,1.00
2022-12-04T04:05:17.595Z,1.00
2022-12-04T04:07:22.127Z,1.00
2022-12-04T04:09:26.537Z,1.00
2022-12-04T04:11:30.841Z,1.00
2022-12-04T04:13:53.181Z,1.00
2022-12-04T04:16:14.931Z,1.00
2022-12-04T04:18:35.617Z,1.00
2022-12-04T04:20:57.653Z,1.00
2022-12-04T04:23:19.693Z,1.00
2022-12-04T04:25:23.916Z,1.00
2022-12-04T04:27:26.500Z,1.00
2022-12-04T04:29:28.972Z,1.00
2022-12-04T04:31:33.388Z,1.00
2022-12-04T04:33:37.966Z,1.00
2022-12-04T04:35:42.260Z,1.00
2022-12-04T04:37:48.005Z,1.10
2022-12-04T04:39:53.022Z,1.10
2022-12-04T04:41:57.874Z,1.10
2022-12-04T04:44:02.343Z,1.00
2022-12-04T04:46:06.980Z,1.00
2022-12-04T04:48:10.989Z,1.10
2022-12-04T04:50:14.461Z,1.10
2022-12-04T04:52:18.449Z,1.10
2022-12-04T04:54:21.530Z,1.10
2022-12-04T04:56:24.520Z,1.10
2022-12-04T04:58:27.016Z,1.10
2022-12-04T05:00:30.469Z,1.10
2022-12-04T05:02:33.259Z,1.10
2022-12-04T05:04:35.752Z,1.10
2022-12-04T05:06:38.259Z,1.10
2022-12-04T05:08:41.034Z,1.10
2022-12-04T05:10:43.581Z,1.10
2022-12-04T05:12:46.074Z,1.10
2022-12-04T05:14:48.773Z,1.20
2022-12-04T05:16:51.273Z,1.10
2022-12-04T05:19:19.118Z,1.10
2022-12-04T05:21:22.082Z,1.10
2022-12-04T05:23:25.639Z,1.10
2022-12-04T05:25:28.220Z,1.10
2022-12-04T05:27:31.603Z,1.10
2022-12-04T05:29:35.950Z,1.20
2022-12-04T05:31:38.588Z,1.10
2022-12-04T05:33:41.129Z,1.10
2022-12-04T05:35:43.753Z,1.10
2022-12-04T05:37:46.237Z,1.10
2022-12-04T05:39:48.733Z,1.20
2022-12-04T05:41:51.407Z,1.20
2022-12-04T05:43:54.038Z,1.10
2022-12-04T05:45:58.353Z,1.10
2022-12-04T05:48:01.964Z,1.10
2022-12-04T05:50:05.373Z,1.10
2022-12-04T05:52:07.936Z,1.20
2022-12-04T05:54:10.436Z,1.10
2022-12-04T05:56:12.906Z,1.20
2022-12-04T05:58:15.405Z,1.20
2022-12-04T06:00:18.428Z,1.10
2022-12-04T06:02:20.998Z,1.20
2022-12-04T06:04:23.517Z,1.20
2022-12-04T06:06:26.191Z,1.20
2022-12-04T06:08:28.646Z,1.20
2022-12-04T06:10:31.171Z,1.20
2022-12-04T06:12:33.834Z,1.20
2022-12-04T06:14:39.457Z,1.20
2022-12-04T06:16:41.651Z,1.20
2022-12-04T06:18:44.520Z,1.20
2022-12-04T06:20:47.129Z,1.20
2022-12-04T06:22:49.699Z,1.20
2022-12-04T06:24:52.406Z,1.20
2022-12-04T06:27:27.264Z,1.20
2022-12-04T06:29:00.917Z,1.30
2022-12-04T06:31:03.629Z,1.30
2022-12-04T06:33:06.104Z,1.30
2022-12-04T06:35:09.340Z,1.30
2022-12-04T06:37:11.832Z,1.30
2022-12-04T06:39:18.718Z,1.30
2022-12-04T06:41:20.325Z,1.30
2022-12-04T06:43:23.543Z,1.30
2022-12-04T06:45:26.057Z,1.40
2022-12-04T06:47:28.631Z,1.30
2022-12-04T06:49:31.223Z,1.30
2022-12-04T06:51:35.021Z,1.30
2022-12-04T06:53:37.604Z,1.40
2022-12-04T06:55:40.084Z,1.40
2022-12-04T06:57:42.742Z,1.40
2022-12-04T06:59:45.248Z,1.40
2022-12-04T07:01:48.150Z,1.40
2022-12-04T07:03:51.832Z,1.40
2022-12-04T07:05:54.495Z,1.40
2022-12-04T07:07:57.063Z,1.40
2022-12-04T07:09:59.641Z,1.40
2022-12-04T07:12:05.709Z,1.40
2022-12-04T07:14:09.399Z,1.40
2022-12-04T07:16:13.697Z,1.50
2022-12-04T07:18:17.120Z,1.50
2022-12-04T07:20:28.321Z,1.40
2022-12-04T07:22:31.898Z,1.50
2022-12-04T07:24:35.888Z,1.50
2022-12-04T07:26:39.256Z,1.40
2022-12-04T07:28:42.560Z,1.40
2022-12-04T07:30:45.510Z,1.50
2022-12-04T07:32:49.305Z,1.50
2022-12-04T07:34:52.342Z,1.50
2022-12-04T07:36:55.717Z,1.50
2022-12-04T07:38:58.465Z,1.50
2022-12-04T07:41:02.422Z,1.50
2022-12-04T07:43:05.393Z,1.50
2022-12-04T07:45:09.024Z,1.50
2022-12-04T07:47:12.251Z,1.50
2022-12-04T07:49:16.084Z,1.50
2022-12-04T07:51:20.340Z,1.50
2022-12-04T07:53:23.824Z,1.50
2022-12-04T07:55:27.284Z,1.50
2022-12-04T07:57:30.267Z,1.50
2022-12-04T07:59:33.078Z,1.50
2022-12-04T08:01:35.658Z,1.50
2022-12-04T08:03:45.262Z,1.50
2022-12-04T08:05:43.473Z,1.60
2022-12-04T08:07:46.905Z,1.50
2022-12-04T08:09:50.528Z,1.50
2022-12-04T08:11:53.193Z,1.50
2022-12-04T08:13:56.849Z,1.60
2022-12-04T08:16:02.268Z,1.60
2022-12-04T08:18:06.046Z,1.60
2022-12-04T08:20:10.284Z,1.60
2022-12-04T08:22:14.216Z,1.60
2022-12-04T08:24:17.780Z,1.60
2022-12-04T08:26:22.212Z,1.60
2022-12-04T08:28:25.925Z,1.60
2022-12-04T08:30:32.978Z,1.60
2022-12-04T08:32:36.566Z,1.60
2022-12-04T08:34:40.255Z,1.70
2022-12-04T08:36:43.798Z,1.70
2022-12-04T08:38:46.934Z,1.70
2022-12-04T08:40:51.580Z,1.70
2022-12-04T08:42:54.922Z,1.70
2022-12-04T08:44:57.904Z,1.70
2022-12-04T08:47:00.371Z,1.70
2022-12-04T08:49:03.507Z,1.70
2022-12-04T08:53:26.486Z,1.70
2022-12-04T08:55:30.481Z,1.70
2022-12-04T08:57:33.695Z,1.80
2022-12-04T08:59:36.399Z,1.80
2022-12-04T09:01:40.196Z,1.80
2022-12-04T09:03:43.064Z,1.80
2022-12-04T09:05:46.545Z,1.80
2022-12-04T09:07:49.073Z,1.80
2022-12-04T09:09:51.576Z,1.80
2022-12-04T09:11:55.003Z,1.90
2022-12-04T09:13:58.176Z,1.90
2022-12-04T09:16:03.537Z,1.90
2022-12-04T09:18:07.481Z,1.90
2022-12-04T09:20:11.164Z,1.90
2022-12-04T09:22:14.749Z,1.90
2022-12-04T09:24:18.334Z,1.90
2022-12-04T09:26:23.019Z,1.90
2022-12-04T09:28:27.000Z,2.00
2022-12-04T09:30:30.441Z,2.00
2022-12-04T09:32:32.992Z,2.00
2022-12-04T09:34:35.918Z,2.00
2022-12-04T09:36:38.652Z,2.00
2022-12-04T09:38:41.660Z,2.00
2022-12-04T09:40:46.750Z,2.00
2022-12-04T09:42:51.205Z,2.00
2022-12-04T09:44:56.892Z,2.10
2022-12-04T09:47:00.810Z,2.10
2022-12-04T09:49:05.404Z,2.10
2022-12-04T09:51:11.954Z,2.10
2022-12-04T09:53:16.159Z,2.10
2022-12-04T09:55:20.995Z,2.10
2022-12-04T09:57:26.380Z,2.10
2022-12-04T09:59:31.503Z,2.20
2022-12-04T10:01:36.276Z,2.10
2022-12-04T10:03:39.796Z,2.20
2022-12-04T10:05:48.521Z,2.20
2022-12-04T10:07:55.404Z,2.20
2022-12-04T10:10:00.421Z,2.20
2022-12-04T10:12:04.853Z,2.20
2022-12-04T10:14:17.281Z,2.20
2022-12-04T10:16:21.646Z,2.30
2022-12-04T10:18:29.008Z,2.20
2022-12-04T10:20:40.717Z,2.30
2022-12-04T10:22:45.117Z,2.30
2022-12-04T10:24:49.537Z,2.30
2022-12-04T10:26:53.589Z,2.30
2022-12-04T10:28:58.068Z,2.30
2022-12-04T10:31:01.557Z,2.30
2022-12-04T10:33:07.808Z,2.30
2022-12-04T10:35:16.403Z,2.30
2022-12-04T10:37:19.187Z,2.40
2022-12-04T10:39:24.155Z,2.40
2022-12-04T10:41:28.987Z,2.40
2022-12-04T10:43:34.322Z,2.40
2022-12-04T10:45:36.953Z,2.50
2022-12-04T10:47:41.309Z,2.50
2022-12-04T10:49:44.116Z,2.50
2022-12-04T10:51:47.226Z,2.50
2022-12-04T10:53:49.996Z,2.50
2022-12-04T10:55:52.601Z,2.50
2022-12-04T10:57:55.640Z,2.50
2022-12-04T10:59:59.728Z,2.50
2022-12-04T11:02:06.986Z,2.50
2022-12-04T11:04:09.820Z,2.60
2022-12-04T11:06:13.989Z,2.60
2022-12-04T11:08:21.500Z,2.60
2022-12-04T11:10:28.453Z,2.60
2022-12-04T11:12:31.418Z,2.50
2022-12-04T11:14:33.985Z,2.60
2022-12-04T11:16:38.032Z,2.70
2022-12-04T11:18:48.209Z,2.70
2022-12-04T11:20:51.932Z,2.70
2022-12-04T11:22:56.486Z,2.70
2022-12-04T11:25:00.020Z,2.70
2022-12-04T11:27:03.197Z,2.70
2022-12-04T11:29:06.073Z,2.70
2022-12-04T11:31:09.539Z,2.70
2022-12-04T11:33:16.985Z,2.70
2022-12-04T11:35:22.247Z,2.70
2022-12-04T11:37:26.711Z,2.70
2022-12-04T11:39:31.660Z,2.70
2022-12-04T11:41:34.157Z,2.70
2022-12-04T11:43:39.753Z,2.70
2022-12-04T11:45:45.044Z,2.70
2022-12-04T11:47:53.675Z,2.80
2022-12-04T11:50:05.288Z,2.80
2022-12-04T11:52:11.483Z,2.80
2022-12-04T11:54:17.128Z,2.80
2022-12-04T11:56:23.097Z,2.70
2022-12-04T11:58:44.119Z,2.70
2022-12-04T12:00:48.406Z,2.70
2022-12-04T12:03:08.811Z,2.80
2022-12-04T12:05:18.502Z,2.70
2022-12-04T12:07:26.314Z,2.70
2022-12-04T12:09:30.629Z,2.70
2022-12-04T12:11:35.155Z,2.80
2022-12-04T12:13:40.715Z,2.70
2022-12-04T12:15:45.482Z,2.80
2022-12-04T12:17:49.982Z,2.80
2022-12-04T12:20:14.419Z,2.70
2022-12-04T12:22:21.205Z,2.80
2022-12-04T12:24:29.405Z,2.80
2022-12-04T12:26:34.425Z,2.80
2022-12-04T12:28:42.258Z,2.80
2022-12-04T12:30:48.317Z,2.80
2022-12-04T12:32:55.593Z,2.80
2022-12-04T12:34:58.999Z,2.80
2022-12-04T12:37:03.325Z,2.80
2022-12-04T12:39:07.669Z,2.90
2022-12-04T12:41:12.929Z,2.90
2022-12-04T12:43:16.603Z,2.90
2022-12-04T12:45:21.249Z,2.90
2022-12-04T12:47:25.670Z,3.00
2022-12-04T12:49:30.263Z,2.90
2022-12-04T12:51:33.857Z,2.90
2022-12-04T12:53:39.109Z,2.90
2022-12-04T12:55:43.401Z,2.90
2022-12-04T12:57:47.737Z,2.90
2022-12-04T12:59:52.165Z,2.90
2022-12-04T13:02:00.178Z,3.00
2022-12-04T13:04:02.216Z,2.90
2022-12-04T13:06:06.025Z,3.00
2022-12-04T13:08:12.504Z,3.00
2022-12-04T13:10:16.476Z,3.00
2022-12-04T13:12:20.429Z,3.00
2022-12-04T13:14:22.878Z,3.00
2022-12-04T13:16:26.774Z,3.00
2022-12-04T13:18:30.662Z,3.00
2022-12-04T13:20:34.943Z,3.00
2022-12-04T13:22:39.292Z,3.00
2022-12-04T13:24:56.015Z,3.00
2022-12-04T13:27:02.365Z,3.00
2022-12-04T13:29:07.723Z,3.00
2022-12-04T13:31:13.456Z,3.00
2022-12-04T13:33:35.096Z,3.00
2022-12-04T13:35:50.888Z,3.00
2022-12-04T13:37:58.556Z,3.00
2022-12-04T13:40:12.969Z,2.90
2022-12-04T13:42:22.316Z,3.00
2022-12-04T13:44:25.560Z,3.00
2022-12-04T13:46:30.474Z,3.00
2022-12-04T13:48:36.437Z,3.00
2022-12-04T13:50:39.444Z,3.00
2022-12-04T13:52:42.117Z,3.00
2022-12-04T13:54:46.629Z,3.00
2022-12-04T13:56:50.515Z,2.90
2022-12-04T13:58:59.181Z,2.90
2022-12-04T14:01:03.416Z,2.90
2022-12-04T14:03:07.976Z,2.90
2022-12-04T14:05:11.780Z,2.90
2022-12-04T14:07:22.420Z,2.90
2022-12-04T14:09:26.793Z,3.00
2022-12-04T14:11:31.136Z,3.00
2022-12-04T14:13:38.753Z,3.00
2022-12-04T14:15:41.408Z,3.00
2022-12-04T14:17:45.780Z,3.00
2022-12-04T14:19:52.534Z,3.00
2022-12-04T14:21:55.215Z,3.00
2022-12-04T14:23:57.678Z,3.00
2022-12-04T14:26:02.435Z,3.00
2022-12-04T14:28:16.720Z,3.00
2022-12-04T14:30:21.123Z,2.90
2022-12-04T14:32:25.613Z,2.90
2022-12-04T14:34:29.639Z,3.00
2022-12-04T14:36:34.555Z,2.90
2022-12-04T14:38:38.248Z,2.90
2022-12-04T14:40:44.024Z,2.90
2022-12-04T14:42:47.564Z,2.90
2022-12-04T14:44:52.904Z,2.90
2022-12-04T14:46:58.108Z,2.90
2022-12-04T14:49:03.459Z,3.00
2022-12-04T14:51:08.663Z,2.90
2022-12-04T14:53:14.812Z,2.90
2022-12-04T14:55:20.036Z,3.00
2022-12-04T14:57:30.545Z,2.90
2022-12-04T14:59:36.298Z,2.90
2022-12-04T15:01:38.775Z,2.90
2022-12-04T15:03:43.557Z,3.00
2022-12-04T15:05:46.378Z,3.00
2022-12-04T15:07:49.922Z,2.90
2022-12-04T15:10:11.551Z,2.80
2022-12-04T15:12:34.383Z,2.90
2022-12-04T15:14:41.502Z,2.90
2022-12-04T15:16:43.983Z,2.80
2022-12-04T15:18:56.376Z,2.90
2022-12-04T15:20:59.740Z,2.80
2022-12-04T15:23:02.843Z,2.80
2022-12-04T15:25:06.530Z,2.80
2022-12-04T15:27:10.706Z,2.80
2022-12-04T15:29:16.823Z,2.80
2022-12-04T15:31:21.395Z,2.70
2022-12-04T15:33:25.437Z,2.70
2022-12-04T15:35:29.582Z,2.70
2022-12-04T15:37:32.581Z,2.70
2022-12-04T15:39:35.989Z,2.70
2022-12-04T15:41:38.515Z,2.80
2022-12-04T15:43:42.643Z,2.70
2022-12-04T15:45:45.284Z,2.70
2022-12-04T15:47:52.928Z,2.70
2022-12-04T15:49:57.436Z,2.70
2022-12-04T15:52:07.897Z,2.70
2022-12-04T15:54:13.781Z,2.70
2022-12-04T15:56:18.460Z,2.70
2022-12-04T15:58:21.938Z,2.70
2022-12-04T16:00:25.965Z,2.70
2022-12-04T16:02:29.727Z,2.80
2022-12-04T16:04:34.997Z,2.70
2022-12-04T16:06:40.893Z,2.80
2022-12-04T16:08:44.885Z,2.80
2022-12-04T16:10:49.694Z,2.70
2022-12-04T16:12:53.572Z,2.80
2022-12-04T16:14:56.488Z,2.70
2022-12-04T16:17:05.946Z,2.80
2022-12-04T16:19:07.850Z,2.80
2022-12-04T16:21:12.156Z,2.70
2022-12-04T16:23:15.719Z,2.70
2022-12-04T16:25:18.301Z,2.60
2022-12-04T16:27:22.288Z,2.70
2022-12-04T16:29:24.746Z,2.60
2022-12-04T16:31:27.412Z,2.60
2022-12-04T16:33:30.207Z,2.60
2022-12-04T16:35:32.691Z,2.70
2022-12-04T16:37:35.162Z,2.70
2022-12-04T16:39:41.368Z,2.70
2022-12-04T16:41:41.988Z,2.70
2022-12-04T16:43:44.508Z,2.70
2022-12-04T16:45:47.792Z,2.60
2022-12-04T16:47:50.441Z,2.60
2022-12-04T16:49:53.165Z,2.60
2022-12-04T16:51:55.671Z,2.60
2022-12-04T16:53:58.130Z,2.60
2022-12-04T16:56:01.061Z,2.70
2022-12-04T16:58:03.817Z,2.60
2022-12-04T17:00:10.075Z,2.70
2022-12-04T17:02:14.956Z,2.70
2022-12-04T17:04:17.844Z,2.70
2022-12-04T17:06:20.495Z,2.60
2022-12-04T17:08:23.089Z,2.60
2022-12-04T17:10:25.582Z,2.70
2022-12-04T17:12:28.069Z,2.60
2022-12-04T17:14:30.554Z,2.60
2022-12-04T17:16:33.059Z,2.60
2022-12-04T17:18:35.652Z,2.60
2022-12-04T17:20:39.978Z,2.60
2022-12-04T17:22:42.504Z,2.60
2022-12-04T17:24:57.089Z,2.60
2022-12-04T17:26:49.741Z,2.60
2022-12-04T17:28:52.237Z,2.60
2022-12-04T17:30:54.742Z,2.60
2022-12-04T17:32:58.670Z,2.60
2022-12-04T17:35:01.482Z,2.60
2022-12-04T17:37:04.189Z,2.60
2022-12-04T17:39:07.673Z,2.60
2022-12-04T17:41:12.673Z,2.60
2022-12-04T17:43:20.371Z,2.50
2022-12-04T17:45:19.573Z,2.50
2022-12-04T17:47:22.530Z,2.50
2022-12-04T17:49:25.037Z,2.60
2022-12-04T17:51:28.224Z,2.50
2022-12-04T17:53:30.696Z,2.50
2022-12-04T17:55:34.451Z,2.50
2022-12-04T17:57:36.939Z,2.40
2022-12-04T17:59:40.627Z,2.40
2022-12-04T18:01:43.504Z,2.40
2022-12-04T18:03:49.584Z,2.40
2022-12-04T18:05:52.041Z,2.30
2022-12-04T18:07:55.077Z,2.30
2022-12-04T18:09:58.003Z,2.30
2022-12-04T18:12:01.278Z,2.30
2022-12-04T18:14:11.465Z,2.30
2022-12-04T18:16:11.115Z,2.30
2022-12-04T18:18:13.617Z,2.30
2022-12-04T18:20:16.641Z,2.30
2022-12-04T18:22:19.137Z,2.30
2022-12-04T18:24:21.941Z,2.30
2022-12-04T18:26:26.305Z,2.30
2022-12-04T18:28:29.680Z,2.20
2022-12-04T18:30:33.389Z,2.20
2022-12-04T18:32:35.883Z,2.30
2022-12-04T18:34:38.352Z,2.20
2022-12-04T18:36:41.724Z,2.30
2022-12-04T18:38:44.604Z,2.20
2022-12-04T18:40:47.055Z,2.20
2022-12-04T18:42:49.559Z,2.20
2022-12-04T18:44:52.076Z,2.20
2022-12-04T18:46:54.559Z,2.30
2022-12-04T18:48:58.320Z,2.30
2022-12-04T18:51:00.825Z,2.30
2022-12-04T18:53:04.103Z,2.40
2022-12-04T18:55:07.815Z,2.40
2022-12-04T18:57:10.605Z,2.30
2022-12-04T18:59:14.007Z,2.40
2022-12-04T19:01:18.110Z,2.40
2022-12-04T19:03:20.704Z,2.40
2022-12-04T19:05:23.217Z,2.40
2022-12-04T19:07:25.720Z,2.30
2022-12-04T19:10:08.991Z,2.40
2022-12-04T19:11:34.179Z,2.40
2022-12-04T19:13:37.010Z,2.40
2022-12-04T19:15:42.023Z,2.30
2022-12-04T19:17:44.628Z,2.30
2022-12-04T19:19:47.113Z,2.30
2022-12-04T19:21:49.611Z,2.30
2022-12-04T19:23:54.262Z,2.30
2022-12-04T19:25:57.340Z,2.40
2022-12-04T19:28:00.019Z,2.30
2022-12-04T19:30:02.626Z,2.30
2022-12-04T19:32:07.042Z,2.30
2022-12-04T19:34:10.061Z,2.30
2022-12-04T19:36:13.563Z,2.30
2022-12-04T19:38:16.068Z,2.40
2022-12-04T19:40:19.116Z,2.40
2022-12-04T19:42:21.860Z,2.40
2022-12-04T19:44:54.014Z,2.40
2022-12-04T19:46:29.995Z,2.40
2022-12-04T19:48:33.584Z,2.40
2022-12-04T19:50:36.112Z,2.40
2022-12-04T19:52:38.780Z,2.30
2022-12-04T19:54:41.468Z,2.40
2022-12-04T19:56:46.220Z,2.30
2022-12-04T19:58:48.698Z,2.40
2022-12-04T20:00:53.252Z,2.40
2022-12-04T20:02:56.227Z,2.40
2022-12-04T20:04:58.757Z,2.40
2022-12-04T20:07:01.266Z,2.40
2022-12-04T20:09:05.112Z,2.30
2022-12-04T20:11:09.661Z,2.40
2022-12-04T20:13:12.430Z,2.40
2022-12-04T20:15:14.962Z,2.40
2022-12-04T20:17:17.564Z,2.40
2022-12-04T20:19:20.128Z,2.40
2022-12-04T20:21:24.613Z,2.40
2022-12-04T20:23:27.773Z,2.40
2022-12-04T20:25:31.193Z,2.50
2022-12-04T20:27:33.928Z,2.40
2022-12-04T20:29:36.617Z,2.40
2022-12-04T20:31:40.115Z,2.40
2022-12-04T20:33:42.805Z,2.40
2022-12-04T20:35:45.435Z,2.40
2022-12-04T20:37:47.922Z,2.40
2022-12-04T20:39:50.407Z,2.40
2022-12-04T20:41:53.439Z,2.40
2022-12-04T20:43:57.746Z,2.40
2022-12-04T20:46:00.287Z,2.40
2022-12-04T20:48:03.205Z,2.40
2022-12-04T20:50:06.618Z,2.40
2022-12-04T20:52:11.418Z,2.40
2022-12-04T20:54:15.425Z,2.40
2022-12-04T20:56:18.393Z,2.40
2022-12-04T20:58:21.810Z,2.40
2022-12-04T21:00:24.405Z,2.40
2022-12-04T21:02:27.134Z,2.40
2022-12-04T21:04:29.680Z,2.40
2022-12-04T21:06:35.035Z,2.40
2022-12-04T21:08:56.312Z,2.40
2022-12-04T21:10:58.788Z,2.40
2022-12-04T21:13:19.650Z,2.40
2022-12-04T21:15:40.051Z,2.40
2022-12-04T21:17:42.596Z,2.30
2022-12-04T21:19:45.335Z,2.40
2022-12-04T21:21:48.014Z,2.40
2022-12-04T21:23:50.885Z,2.50
2022-12-04T21:25:56.760Z,2.40
2022-12-04T21:27:59.341Z,2.40
2022-12-04T21:30:02.133Z,2.40
2022-12-04T21:32:05.771Z,2.40
2022-12-04T21:34:10.141Z,2.40
2022-12-04T21:36:15.804Z,2.50
2022-12-04T21:38:21.988Z,2.40
2022-12-04T21:40:25.202Z,2.40
2022-12-04T21:42:30.319Z,2.40
2022-12-04T21:44:32.862Z,2.40
2022-12-04T21:46:35.494Z,2.40
2022-12-04T21:48:38.226Z,2.40
2022-12-04T21:50:40.710Z,2.50
2022-12-04T21:52:43.232Z,2.40
2022-12-04T21:54:47.567Z,2.50
2022-12-04T21:56:50.030Z,2.50
2022-12-04T21:58:52.631Z,2.50
2022-12-04T22:00:55.128Z,2.40
2022-12-04T22:02:59.029Z,2.40
2022-12-04T22:05:03.305Z,2.50
2022-12-04T22:07:06.371Z,2.40
2022-12-04T22:09:10.402Z,2.50
2022-12-04T22:11:13.368Z,2.50
2022-12-04T22:13:15.862Z,2.50
2022-12-04T22:15:18.558Z,2.50
2022-12-04T22:17:21.025Z,2.50
2022-12-04T22:19:23.493Z,2.50
2022-12-04T22:21:27.701Z,2.50
2022-12-04T22:23:30.209Z,2.50
2022-12-04T22:25:33.008Z,2.50
2022-12-04T22:27:35.508Z,2.50
2022-12-04T22:29:53.276Z,2.50
2022-12-04T22:31:42.437Z,2.50
2022-12-04T22:33:46.608Z,2.50
2022-12-04T22:35:49.503Z,2.50
2022-12-04T22:37:52.019Z,2.50
2022-12-04T22:39:54.929Z,2.50
2022-12-04T22:41:57.640Z,2.50
2022-12-04T22:44:00.583Z,2.50
2022-12-04T22:46:03.346Z,2.50
2022-12-04T22:48:06.077Z,2.60
2022-12-04T22:50:09.604Z,2.50
2022-12-04T22:52:12.311Z,2.60
2022-12-04T22:54:14.831Z,2.50
2022-12-04T22:56:18.205Z,2.50
2022-12-04T22:58:20.759Z,2.50
2022-12-04T23:00:23.255Z,2.60
2022-12-04T23:02:25.800Z,2.60
2022-12-04T23:04:28.478Z,2.50
2022-12-04T23:06:32.256Z,2.50
2022-12-04T23:08:34.950Z,2.60
2022-12-04T23:10:37.867Z,2.60
2022-12-04T23:12:40.371Z,2.60
2022-12-04T23:14:42.867Z,2.60
2022-12-04T23:16:45.374Z,2.60
2022-12-04T23:18:47.937Z,2.60
2022-12-04T23:20:50.528Z,2.60
2022-12-04T23:22:54.832Z,2.60
2022-12-04T23:24:57.747Z,2.60
2022-12-04T23:27:00.260Z,2.60
2022-12-04T23:29:02.826Z,2.60
2022-12-04T23:31:05.773Z,2.60
2022-12-04T23:33:08.805Z,2.60
2022-12-04T23:35:11.321Z,2.60
2022-12-04T23:37:13.840Z,2.60
2022-12-04T23:39:16.401Z,2.60
2022-12-04T23:41:19.695Z,2.60
2022-12-04T23:43:22.386Z,2.60
2022-12-04T23:45:24.881Z,2.60
2022-12-04T23:47:27.400Z,2.50
2022-12-04T23:49:29.864Z,2.60
2022-12-04T23:51:32.499Z,2.60
2022-12-04T23:53:34.996Z,2.60
2022-12-04T23:55:37.489Z,2.70
2022-12-04T23:57:39.994Z,2.60
2022-12-04T23:59:42.567Z,2.70
